sensor_id;sensor_type;location;lat;lon;timestamp;P1;durP1;ratioP1;P2;durP2;ratioP2
76202;SDS011;64985;46.364;17.008;2023-11-22T00:00:55;43.67;;;23.25;;
76202;SDS011;64985;46.364;17.008;2023-11-22T00:03:59;39.08;;;23.17;;
76202;SDS011;64985;46.364;17.008;2023-11-22T00:07:03;39.83;;;21.80;;
76202;SDS011;64985;46.364;17.008;2023-11-22T00:10:06;39.80;;;21.00;;
76202;SDS011;64985;46.364;17.008;2023-11-22T00:13:11;36.17;;;20.88;;
76202;SDS011;64985;46.364;17.008;2023-11-22T00:16:14;41.65;;;21.52;;
76202;SDS011;64985;46.364;17.008;2023-11-22T00:19:18;37.53;;;20.65;;
76202;SDS011;64985;46.364;17.008;2023-11-22T00:22:24;37.45;;;20.88;;
76202;SDS011;64985;46.364;17.008;2023-11-22T00:25:29;38.15;;;21.25;;
76202;SDS011;64985;46.364;17.008;2023-11-22T00:28:32;38.40;;;20.63;;
76202;SDS011;64985;46.364;17.008;2023-11-22T00:31:37;35.80;;;19.40;;
76202;SDS011;64985;46.364;17.008;2023-11-22T00:34:40;41.28;;;20.55;;
76202;SDS011;64985;46.364;17.008;2023-11-22T00:37:44;34.05;;;18.42;;
76202;SDS011;64985;46.364;17.008;2023-11-22T00:40:48;34.53;;;17.55;;
76202;SDS011;64985;46.364;17.008;2023-11-22T00:43:52;39.95;;;17.90;;
76202;SDS011;64985;46.364;17.008;2023-11-22T00:46:56;36.80;;;17.73;;
76202;SDS011;64985;46.364;17.008;2023-11-22T00:50:00;29.95;;;15.93;;
76202;SDS011;64985;46.364;17.008;2023-11-22T00:53:04;34.63;;;16.55;;
76202;SDS011;64985;46.364;17.008;2023-11-22T00:56:08;30.95;;;14.85;;
76202;SDS011;64985;46.364;17.008;2023-11-22T00:59:11;30.23;;;14.45;;
76202;SDS011;64985;46.364;17.008;2023-11-22T01:02:16;33.42;;;14.40;;
76202;SDS011;64985;46.364;17.008;2023-11-22T01:05:19;34.30;;;13.48;;
76202;SDS011;64985;46.364;17.008;2023-11-22T01:08:23;31.20;;;14.70;;
76202;SDS011;64985;46.364;17.008;2023-11-22T01:11:26;29.13;;;13.95;;
76202;SDS011;64985;46.364;17.008;2023-11-22T01:14:30;31.40;;;14.48;;
76202;SDS011;64985;46.364;17.008;2023-11-22T01:17:33;30.90;;;13.15;;
76202;SDS011;64985;46.364;17.008;2023-11-22T01:20:37;26.92;;;13.82;;
76202;SDS011;64985;46.364;17.008;2023-11-22T01:23:40;30.92;;;13.63;;
76202;SDS011;64985;46.364;17.008;2023-11-22T01:26:44;26.55;;;12.45;;
76202;SDS011;64985;46.364;17.008;2023-11-22T01:29:47;26.00;;;12.35;;
76202;SDS011;64985;46.364;17.008;2023-11-22T01:32:50;29.40;;;13.05;;
76202;SDS011;64985;46.364;17.008;2023-11-22T01:35:53;28.98;;;13.35;;
76202;SDS011;64985;46.364;17.008;2023-11-22T01:38:56;27.15;;;12.90;;
76202;SDS011;64985;46.364;17.008;2023-11-22T01:42:00;28.38;;;13.38;;
76202;SDS011;64985;46.364;17.008;2023-11-22T01:45:03;26.75;;;12.55;;
76202;SDS011;64985;46.364;17.008;2023-11-22T01:48:07;26.02;;;12.10;;
76202;SDS011;64985;46.364;17.008;2023-11-22T01:51:14;26.13;;;11.75;;
76202;SDS011;64985;46.364;17.008;2023-11-22T01:54:18;29.30;;;11.75;;
76202;SDS011;64985;46.364;17.008;2023-11-22T01:57:25;23.35;;;11.93;;
76202;SDS011;64985;46.364;17.008;2023-11-22T02:00:32;27.60;;;11.68;;
76202;SDS011;64985;46.364;17.008;2023-11-22T02:03:45;24.05;;;10.90;;
76202;SDS011;64985;46.364;17.008;2023-11-22T02:06:50;22.50;;;11.30;;
76202;SDS011;64985;46.364;17.008;2023-11-22T02:09:54;26.45;;;11.68;;
76202;SDS011;64985;46.364;17.008;2023-11-22T02:12:58;23.17;;;11.35;;
76202;SDS011;64985;46.364;17.008;2023-11-22T02:16:02;24.75;;;11.70;;
76202;SDS011;64985;46.364;17.008;2023-11-22T02:19:05;25.23;;;11.45;;
76202;SDS011;64985;46.364;17.008;2023-11-22T02:22:10;21.45;;;11.07;;
76202;SDS011;64985;46.364;17.008;2023-11-22T02:25:13;21.27;;;10.38;;
76202;SDS011;64985;46.364;17.008;2023-11-22T02:28:20;24.80;;;11.07;;
76202;SDS011;64985;46.364;17.008;2023-11-22T02:31:24;23.10;;;10.73;;
76202;SDS011;64985;46.364;17.008;2023-11-22T02:34:29;23.10;;;10.45;;
76202;SDS011;64985;46.364;17.008;2023-11-22T02:37:33;20.00;;;10.15;;
76202;SDS011;64985;46.364;17.008;2023-11-22T02:40:40;19.38;;;10.25;;
76202;SDS011;64985;46.364;17.008;2023-11-22T02:43:43;21.05;;;10.15;;
76202;SDS011;64985;46.364;17.008;2023-11-22T02:46:48;20.98;;;10.40;;
76202;SDS011;64985;46.364;17.008;2023-11-22T02:49:51;26.23;;;10.63;;
76202;SDS011;64985;46.364;17.008;2023-11-22T02:52:57;24.95;;;10.68;;
76202;SDS011;64985;46.364;17.008;2023-11-22T02:56:01;19.73;;;10.25;;
76202;SDS011;64985;46.364;17.008;2023-11-22T02:59:05;21.70;;;10.60;;
76202;SDS011;64985;46.364;17.008;2023-11-22T03:02:08;21.05;;;10.95;;
76202;SDS011;64985;46.364;17.008;2023-11-22T03:05:11;28.20;;;10.30;;
76202;SDS011;64985;46.364;17.008;2023-11-22T03:08:15;23.38;;;11.30;;
76202;SDS011;64985;46.364;17.008;2023-11-22T03:11:18;26.60;;;11.52;;
76202;SDS011;64985;46.364;17.008;2023-11-22T03:14:22;22.92;;;11.48;;
76202;SDS011;64985;46.364;17.008;2023-11-22T03:17:26;27.38;;;11.73;;
76202;SDS011;64985;46.364;17.008;2023-11-22T03:20:33;24.27;;;11.85;;
76202;SDS011;64985;46.364;17.008;2023-11-22T03:23:37;32.10;;;12.02;;
76202;SDS011;64985;46.364;17.008;2023-11-22T03:26:43;31.88;;;12.93;;
76202;SDS011;64985;46.364;17.008;2023-11-22T03:29:47;30.95;;;13.48;;
76202;SDS011;64985;46.364;17.008;2023-11-22T03:32:51;34.05;;;14.18;;
76202;SDS011;64985;46.364;17.008;2023-11-22T03:35:54;35.05;;;13.85;;
76202;SDS011;64985;46.364;17.008;2023-11-22T03:38:57;28.98;;;13.15;;
76202;SDS011;64985;46.364;17.008;2023-11-22T03:42:00;27.73;;;13.00;;
76202;SDS011;64985;46.364;17.008;2023-11-22T03:45:04;34.00;;;14.93;;
76202;SDS011;64985;46.364;17.008;2023-11-22T03:48:09;33.88;;;13.88;;
76202;SDS011;64985;46.364;17.008;2023-11-22T03:51:12;29.30;;;13.95;;
76202;SDS011;64985;46.364;17.008;2023-11-22T03:54:15;26.42;;;12.93;;
76202;SDS011;64985;46.364;17.008;2023-11-22T03:57:18;30.00;;;14.25;;
76202;SDS011;64985;46.364;17.008;2023-11-22T04:00:22;29.65;;;14.05;;
76202;SDS011;64985;46.364;17.008;2023-11-22T04:03:26;31.38;;;15.13;;
76202;SDS011;64985;46.364;17.008;2023-11-22T04:06:30;28.77;;;14.35;;
76202;SDS011;64985;46.364;17.008;2023-11-22T04:09:35;34.50;;;15.23;;
76202;SDS011;64985;46.364;17.008;2023-11-22T04:12:40;33.80;;;15.25;;
76202;SDS011;64985;46.364;17.008;2023-11-22T04:15:43;33.30;;;14.70;;
76202;SDS011;64985;46.364;17.008;2023-11-22T04:18:46;35.53;;;15.48;;
76202;SDS011;64985;46.364;17.008;2023-11-22T04:21:50;38.00;;;15.40;;
76202;SDS011;64985;46.364;17.008;2023-11-22T04:24:54;39.35;;;16.98;;
76202;SDS011;64985;46.364;17.008;2023-11-22T04:27:58;39.72;;;16.63;;
76202;SDS011;64985;46.364;17.008;2023-11-22T04:31:02;43.50;;;17.27;;
76202;SDS011;64985;46.364;17.008;2023-11-22T04:34:06;45.20;;;16.65;;
76202;SDS011;64985;46.364;17.008;2023-11-22T04:37:10;45.65;;;18.60;;
76202;SDS011;64985;46.364;17.008;2023-11-22T04:40:13;44.67;;;17.77;;
76202;SDS011;64985;46.364;17.008;2023-11-22T04:43:17;42.28;;;18.58;;
76202;SDS011;64985;46.364;17.008;2023-11-22T04:46:21;43.38;;;17.60;;
76202;SDS011;64985;46.364;17.008;2023-11-22T04:49:24;49.72;;;19.83;;
76202;SDS011;64985;46.364;17.008;2023-11-22T04:52:28;48.45;;;19.98;;
76202;SDS011;64985;46.364;17.008;2023-11-22T04:55:34;50.25;;;20.67;;
76202;SDS011;64985;46.364;17.008;2023-11-22T04:58:37;52.20;;;21.52;;
76202;SDS011;64985;46.364;17.008;2023-11-22T05:01:41;54.17;;;20.75;;
76202;SDS011;64985;46.364;17.008;2023-11-22T05:04:44;53.50;;;21.10;;
76202;SDS011;64985;46.364;17.008;2023-11-22T05:07:51;50.83;;;20.65;;
76202;SDS011;64985;46.364;17.008;2023-11-22T05:10:55;49.55;;;21.00;;
76202;SDS011;64985;46.364;17.008;2023-11-22T05:14:15;54.70;;;21.75;;
76202;SDS011;64985;46.364;17.008;2023-11-22T05:17:18;55.00;;;21.67;;
76202;SDS011;64985;46.364;17.008;2023-11-22T05:20:22;59.05;;;23.77;;
76202;SDS011;64985;46.364;17.008;2023-11-22T05:23:26;56.70;;;22.00;;
76202;SDS011;64985;46.364;17.008;2023-11-22T05:26:29;58.08;;;22.40;;
76202;SDS011;64985;46.364;17.008;2023-11-22T05:29:33;57.15;;;23.02;;
76202;SDS011;64985;46.364;17.008;2023-11-22T05:32:49;44.85;;;21.63;;
76202;SDS011;64985;46.364;17.008;2023-11-22T05:35:52;48.97;;;21.58;;
76202;SDS011;64985;46.364;17.008;2023-11-22T05:38:56;51.83;;;22.10;;
76202;SDS011;64985;46.364;17.008;2023-11-22T05:42:02;46.95;;;21.13;;
76202;SDS011;64985;46.364;17.008;2023-11-22T05:45:05;48.90;;;21.73;;
76202;SDS011;64985;46.364;17.008;2023-11-22T05:48:10;45.60;;;19.40;;
76202;SDS011;64985;46.364;17.008;2023-11-22T05:51:14;47.65;;;21.52;;
76202;SDS011;64985;46.364;17.008;2023-11-22T05:54:18;41.45;;;19.40;;
76202;SDS011;64985;46.364;17.008;2023-11-22T05:57:22;46.78;;;20.52;;
76202;SDS011;64985;46.364;17.008;2023-11-22T06:00:25;39.08;;;19.77;;
76202;SDS011;64985;46.364;17.008;2023-11-22T06:03:29;38.72;;;20.10;;
76202;SDS011;64985;46.364;17.008;2023-11-22T06:06:31;44.28;;;19.27;;
76202;SDS011;64985;46.364;17.008;2023-11-22T06:09:35;43.47;;;20.70;;
76202;SDS011;64985;46.364;17.008;2023-11-22T06:12:38;46.22;;;20.17;;
76202;SDS011;64985;46.364;17.008;2023-11-22T06:15:41;40.97;;;19.67;;
76202;SDS011;64985;46.364;17.008;2023-11-22T06:18:45;44.10;;;20.35;;
76202;SDS011;64985;46.364;17.008;2023-11-22T06:21:49;42.63;;;20.60;;
76202;SDS011;64985;46.364;17.008;2023-11-22T06:24:52;36.10;;;18.25;;
76202;SDS011;64985;46.364;17.008;2023-11-22T06:27:55;39.10;;;18.35;;
76202;SDS011;64985;46.364;17.008;2023-11-22T06:31:01;39.95;;;19.33;;
76202;SDS011;64985;46.364;17.008;2023-11-22T06:34:05;31.48;;;17.00;;
76202;SDS011;64985;46.364;17.008;2023-11-22T06:37:08;34.95;;;16.77;;
76202;SDS011;64985;46.364;17.008;2023-11-22T06:40:12;33.50;;;16.52;;
76202;SDS011;64985;46.364;17.008;2023-11-22T06:43:16;30.27;;;16.10;;
76202;SDS011;64985;46.364;17.008;2023-11-22T06:46:19;31.25;;;15.65;;
76202;SDS011;64985;46.364;17.008;2023-11-22T06:49:23;30.20;;;15.02;;
76202;SDS011;64985;46.364;17.008;2023-11-22T06:52:26;30.00;;;14.57;;
76202;SDS011;64985;46.364;17.008;2023-11-22T06:55:30;26.73;;;14.52;;
76202;SDS011;64985;46.364;17.008;2023-11-22T06:58:35;25.98;;;13.23;;
76202;SDS011;64985;46.364;17.008;2023-11-22T07:01:39;21.70;;;12.00;;
76202;SDS011;64985;46.364;17.008;2023-11-22T07:04:42;24.92;;;12.73;;
76202;SDS011;64985;46.364;17.008;2023-11-22T07:07:45;24.08;;;12.32;;
76202;SDS011;64985;46.364;17.008;2023-11-22T07:10:50;19.52;;;11.50;;
76202;SDS011;64985;46.364;17.008;2023-11-22T07:13:55;23.95;;;11.65;;
76202;SDS011;64985;46.364;17.008;2023-11-22T07:17:00;17.92;;;10.50;;
76202;SDS011;64985;46.364;17.008;2023-11-22T07:20:03;21.08;;;10.80;;
76202;SDS011;64985;46.364;17.008;2023-11-22T07:23:11;17.23;;;9.65;;
76202;SDS011;64985;46.364;17.008;2023-11-22T07:26:16;15.55;;;9.90;;
76202;SDS011;64985;46.364;17.008;2023-11-22T07:29:19;16.50;;;9.10;;
76202;SDS011;64985;46.364;17.008;2023-11-22T07:32:24;14.45;;;8.43;;
76202;SDS011;64985;46.364;17.008;2023-11-22T07:35:27;15.07;;;8.63;;
76202;SDS011;64985;46.364;17.008;2023-11-22T07:38:31;14.20;;;7.82;;
76202;SDS011;64985;46.364;17.008;2023-11-22T07:41:36;15.02;;;8.15;;
76202;SDS011;64985;46.364;17.008;2023-11-22T07:44:40;17.95;;;8.43;;
76202;SDS011;64985;46.364;17.008;2023-11-22T07:47:44;15.63;;;8.05;;
76202;SDS011;64985;46.364;17.008;2023-11-22T07:50:49;12.50;;;7.40;;
76202;SDS011;64985;46.364;17.008;2023-11-22T07:53:52;12.95;;;7.30;;
76202;SDS011;64985;46.364;17.008;2023-11-22T07:56:56;10.63;;;6.80;;
76202;SDS011;64985;46.364;17.008;2023-11-22T08:00:00;9.85;;;5.85;;
76202;SDS011;64985;46.364;17.008;2023-11-22T08:03:07;10.85;;;6.15;;
76202;SDS011;64985;46.364;17.008;2023-11-22T08:06:11;10.00;;;6.15;;
76202;SDS011;64985;46.364;17.008;2023-11-22T08:09:15;11.43;;;6.13;;
76202;SDS011;64985;46.364;17.008;2023-11-22T08:12:19;7.93;;;5.10;;
76202;SDS011;64985;46.364;17.008;2023-11-22T08:15:23;10.93;;;5.40;;
76202;SDS011;64985;46.364;17.008;2023-11-22T08:18:26;8.65;;;4.90;;
76202;SDS011;64985;46.364;17.008;2023-11-22T08:21:30;9.10;;;4.70;;
76202;SDS011;64985;46.364;17.008;2023-11-22T08:24:34;8.10;;;4.43;;
76202;SDS011;64985;46.364;17.008;2023-11-22T08:27:39;7.82;;;4.35;;
76202;SDS011;64985;46.364;17.008;2023-11-22T08:30:45;10.07;;;4.50;;
76202;SDS011;64985;46.364;17.008;2023-11-22T08:33:49;6.80;;;4.30;;
76202;SDS011;64985;46.364;17.008;2023-11-22T08:36:53;7.35;;;4.25;;
76202;SDS011;64985;46.364;17.008;2023-11-22T08:39:59;7.13;;;4.55;;
76202;SDS011;64985;46.364;17.008;2023-11-22T08:43:02;7.13;;;4.40;;
76202;SDS011;64985;46.364;17.008;2023-11-22T08:46:06;6.63;;;4.15;;
76202;SDS011;64985;46.364;17.008;2023-11-22T08:49:15;5.47;;;3.65;;
76202;SDS011;64985;46.364;17.008;2023-11-22T08:52:19;6.43;;;4.20;;
76202;SDS011;64985;46.364;17.008;2023-11-22T08:55:22;8.02;;;3.88;;
76202;SDS011;64985;46.364;17.008;2023-11-22T08:58:26;7.82;;;4.30;;
76202;SDS011;64985;46.364;17.008;2023-11-22T09:01:30;6.65;;;4.18;;
76202;SDS011;64985;46.364;17.008;2023-11-22T09:04:33;6.53;;;4.30;;
76202;SDS011;64985;46.364;17.008;2023-11-22T09:07:38;7.18;;;4.28;;
76202;SDS011;64985;46.364;17.008;2023-11-22T09:10:42;6.53;;;3.90;;
76202;SDS011;64985;46.364;17.008;2023-11-22T09:13:45;6.25;;;3.88;;
76202;SDS011;64985;46.364;17.008;2023-11-22T09:16:48;5.35;;;3.65;;
76202;SDS011;64985;46.364;17.008;2023-11-22T09:19:56;5.68;;;3.47;;
76202;SDS011;64985;46.364;17.008;2023-11-22T09:23:01;5.85;;;3.55;;
76202;SDS011;64985;46.364;17.008;2023-11-22T09:26:06;6.20;;;3.28;;
76202;SDS011;64985;46.364;17.008;2023-11-22T09:29:10;5.57;;;3.40;;
76202;SDS011;64985;46.364;17.008;2023-11-22T09:32:16;6.47;;;3.60;;
76202;SDS011;64985;46.364;17.008;2023-11-22T09:35:19;5.20;;;3.60;;
76202;SDS011;64985;46.364;17.008;2023-11-22T09:38:24;4.35;;;3.10;;
76202;SDS011;64985;46.364;17.008;2023-11-22T09:41:27;4.68;;;3.25;;
76202;SDS011;64985;46.364;17.008;2023-11-22T09:44:31;5.18;;;3.25;;
76202;SDS011;64985;46.364;17.008;2023-11-22T09:47:34;4.75;;;3.42;;
76202;SDS011;64985;46.364;17.008;2023-11-22T09:50:40;5.13;;;3.42;;
76202;SDS011;64985;46.364;17.008;2023-11-22T09:53:55;6.90;;;3.92;;
76202;SDS011;64985;46.364;17.008;2023-11-22T09:57:00;6.22;;;3.97;;
76202;SDS011;64985;46.364;17.008;2023-11-22T10:00:05;5.05;;;3.60;;
76202;SDS011;64985;46.364;17.008;2023-11-22T10:03:16;6.07;;;3.65;;
76202;SDS011;64985;46.364;17.008;2023-11-22T10:06:21;7.10;;;4.25;;
76202;SDS011;64985;46.364;17.008;2023-11-22T10:09:25;6.22;;;3.83;;
76202;SDS011;64985;46.364;17.008;2023-11-22T10:12:32;6.00;;;3.90;;
76202;SDS011;64985;46.364;17.008;2023-11-22T10:15:39;6.15;;;3.65;;
76202;SDS011;64985;46.364;17.008;2023-11-22T10:18:42;6.35;;;3.80;;
76202;SDS011;64985;46.364;17.008;2023-11-22T10:22:01;6.07;;;4.18;;
76202;SDS011;64985;46.364;17.008;2023-11-22T10:25:09;6.18;;;4.00;;
76202;SDS011;64985;46.364;17.008;2023-11-22T10:28:13;5.63;;;3.75;;
76202;SDS011;64985;46.364;17.008;2023-11-22T10:31:16;6.07;;;3.83;;
76202;SDS011;64985;46.364;17.008;2023-11-22T10:34:23;5.60;;;3.75;;
76202;SDS011;64985;46.364;17.008;2023-11-22T10:37:28;5.22;;;3.40;;
76202;SDS011;64985;46.364;17.008;2023-11-22T10:40:31;6.07;;;3.97;;
76202;SDS011;64985;46.364;17.008;2023-11-22T10:43:35;5.68;;;4.00;;
76202;SDS011;64985;46.364;17.008;2023-11-22T10:46:39;6.05;;;4.00;;
76202;SDS011;64985;46.364;17.008;2023-11-22T10:49:42;6.68;;;3.97;;
76202;SDS011;64985;46.364;17.008;2023-11-22T10:52:45;7.10;;;3.50;;
76202;SDS011;64985;46.364;17.008;2023-11-22T10:55:59;5.55;;;3.58;;
76202;SDS011;64985;46.364;17.008;2023-11-22T10:59:18;5.25;;;3.47;;
76202;SDS011;64985;46.364;17.008;2023-11-22T11:02:25;5.40;;;3.33;;
76202;SDS011;64985;46.364;17.008;2023-11-22T11:05:30;5.07;;;3.30;;
76202;SDS011;64985;46.364;17.008;2023-11-22T11:08:37;4.35;;;3.13;;
76202;SDS011;64985;46.364;17.008;2023-11-22T11:11:41;4.97;;;3.15;;
76202;SDS011;64985;46.364;17.008;2023-11-22T11:14:46;6.85;;;3.05;;
76202;SDS011;64985;46.364;17.008;2023-11-22T11:17:50;5.75;;;3.08;;
76202;SDS011;64985;46.364;17.008;2023-11-22T11:20:56;6.38;;;3.20;;
76202;SDS011;64985;46.364;17.008;2023-11-22T11:24:01;5.38;;;3.45;;
76202;SDS011;64985;46.364;17.008;2023-11-22T11:27:09;6.10;;;3.58;;
76202;SDS011;64985;46.364;17.008;2023-11-22T11:33:34;6.10;;;4.18;;
76202;SDS011;64985;46.364;17.008;2023-11-22T11:36:56;5.70;;;3.60;;
76202;SDS011;64985;46.364;17.008;2023-11-22T11:40:07;4.75;;;3.30;;
76202;SDS011;64985;46.364;17.008;2023-11-22T11:43:46;4.43;;;3.20;;
76202;SDS011;64985;46.364;17.008;2023-11-22T11:46:51;5.10;;;3.42;;
76202;SDS011;64985;46.364;17.008;2023-11-22T11:49:54;6.90;;;4.60;;
76202;SDS011;64985;46.364;17.008;2023-11-22T11:52:58;7.90;;;5.10;;
76202;SDS011;64985;46.364;17.008;2023-11-22T11:56:02;7.60;;;4.85;;
76202;SDS011;64985;46.364;17.008;2023-11-22T11:59:06;5.30;;;3.88;;
76202;SDS011;64985;46.364;17.008;2023-11-22T12:02:12;7.40;;;3.67;;
76202;SDS011;64985;46.364;17.008;2023-11-22T12:05:18;5.13;;;3.83;;
76202;SDS011;64985;46.364;17.008;2023-11-22T12:08:22;5.47;;;3.53;;
76202;SDS011;64985;46.364;17.008;2023-11-22T12:11:26;6.60;;;4.15;;
76202;SDS011;64985;46.364;17.008;2023-11-22T12:14:30;7.45;;;4.70;;
76202;SDS011;64985;46.364;17.008;2023-11-22T12:17:33;5.53;;;3.60;;
76202;SDS011;64985;46.364;17.008;2023-11-22T12:20:38;6.25;;;4.05;;
76202;SDS011;64985;46.364;17.008;2023-11-22T12:23:42;5.40;;;3.65;;
76202;SDS011;64985;46.364;17.008;2023-11-22T12:26:47;6.53;;;3.92;;
76202;SDS011;64985;46.364;17.008;2023-11-22T12:29:52;5.82;;;3.58;;
76202;SDS011;64985;46.364;17.008;2023-11-22T12:32:55;5.80;;;4.00;;
76202;SDS011;64985;46.364;17.008;2023-11-22T12:35:58;6.13;;;4.18;;
76202;SDS011;64985;46.364;17.008;2023-11-22T12:39:02;7.63;;;4.70;;
76202;SDS011;64985;46.364;17.008;2023-11-22T12:42:06;7.72;;;4.88;;
76202;SDS011;64985;46.364;17.008;2023-11-22T12:45:21;8.27;;;5.30;;
76202;SDS011;64985;46.364;17.008;2023-11-22T12:48:26;10.02;;;5.60;;
76202;SDS011;64985;46.364;17.008;2023-11-22T12:51:32;10.93;;;6.70;;
76202;SDS011;64985;46.364;17.008;2023-11-22T12:54:35;10.30;;;6.32;;
76202;SDS011;64985;46.364;17.008;2023-11-22T12:57:39;9.60;;;6.60;;
76202;SDS011;64985;46.364;17.008;2023-11-22T13:00:46;9.50;;;6.28;;
76202;SDS011;64985;46.364;17.008;2023-11-22T13:03:50;7.97;;;5.65;;
76202;SDS011;64985;46.364;17.008;2023-11-22T13:06:53;7.75;;;5.40;;
76202;SDS011;64985;46.364;17.008;2023-11-22T13:09:56;9.20;;;5.90;;
76202;SDS011;64985;46.364;17.008;2023-11-22T13:13:00;9.45;;;5.75;;
76202;SDS011;64985;46.364;17.008;2023-11-22T13:16:03;9.45;;;6.07;;
76202;SDS011;64985;46.364;17.008;2023-11-22T13:19:08;9.32;;;5.85;;
76202;SDS011;64985;46.364;17.008;2023-11-22T13:22:14;9.02;;;6.28;;
76202;SDS011;64985;46.364;17.008;2023-11-22T13:25:18;8.35;;;5.88;;
76202;SDS011;64985;46.364;17.008;2023-11-22T13:28:22;11.02;;;6.72;;
76202;SDS011;64985;46.364;17.008;2023-11-22T13:31:27;10.48;;;7.05;;
76202;SDS011;64985;46.364;17.008;2023-11-22T13:34:31;9.20;;;6.07;;
76202;SDS011;64985;46.364;17.008;2023-11-22T13:37:35;8.73;;;6.15;;
76202;SDS011;64985;46.364;17.008;2023-11-22T13:40:38;8.57;;;6.22;;
76202;SDS011;64985;46.364;17.008;2023-11-22T13:43:42;10.05;;;6.40;;
76202;SDS011;64985;46.364;17.008;2023-11-22T13:46:46;8.95;;;6.30;;
76202;SDS011;64985;46.364;17.008;2023-11-22T13:49:53;11.52;;;7.10;;
76202;SDS011;64985;46.364;17.008;2023-11-22T13:52:57;9.45;;;6.68;;
76202;SDS011;64985;46.364;17.008;2023-11-22T13:56:01;10.45;;;7.10;;
76202;SDS011;64985;46.364;17.008;2023-11-22T13:59:10;10.32;;;7.25;;
76202;SDS011;64985;46.364;17.008;2023-11-22T14:02:14;10.52;;;6.72;;
76202;SDS011;64985;46.364;17.008;2023-11-22T14:05:19;13.05;;;7.95;;
76202;SDS011;64985;46.364;17.008;2023-11-22T14:08:22;11.13;;;7.32;;
76202;SDS011;64985;46.364;17.008;2023-11-22T14:11:26;12.13;;;7.82;;
76202;SDS011;64985;46.364;17.008;2023-11-22T14:14:29;13.95;;;8.02;;
76202;SDS011;64985;46.364;17.008;2023-11-22T14:17:33;15.07;;;9.38;;
76202;SDS011;64985;46.364;17.008;2023-11-22T14:20:37;14.60;;;8.48;;
76202;SDS011;64985;46.364;17.008;2023-11-22T14:23:40;13.13;;;7.95;;
76202;SDS011;64985;46.364;17.008;2023-11-22T14:26:43;12.32;;;7.93;;
76202;SDS011;64985;46.364;17.008;2023-11-22T14:29:51;16.40;;;9.15;;
76202;SDS011;64985;46.364;17.008;2023-11-22T14:32:56;12.23;;;7.75;;
76202;SDS011;64985;46.364;17.008;2023-11-22T14:36:02;12.73;;;8.25;;
76202;SDS011;64985;46.364;17.008;2023-11-22T14:39:06;13.48;;;8.60;;
76202;SDS011;64985;46.364;17.008;2023-11-22T14:42:14;16.80;;;10.05;;
76202;SDS011;64985;46.364;17.008;2023-11-22T14:45:18;15.00;;;9.10;;
76202;SDS011;64985;46.364;17.008;2023-11-22T14:48:24;15.70;;;9.27;;
76202;SDS011;64985;46.364;17.008;2023-11-22T14:51:29;15.63;;;9.77;;
76202;SDS011;64985;46.364;17.008;2023-11-22T14:54:33;19.40;;;10.40;;
76202;SDS011;64985;46.364;17.008;2023-11-22T14:57:36;19.33;;;10.05;;
76202;SDS011;64985;46.364;17.008;2023-11-22T15:00:40;18.25;;;10.18;;
76202;SDS011;64985;46.364;17.008;2023-11-22T15:03:43;17.38;;;10.43;;
76202;SDS011;64985;46.364;17.008;2023-11-22T15:06:47;18.40;;;10.27;;
76202;SDS011;64985;46.364;17.008;2023-11-22T15:09:51;19.48;;;10.77;;
76202;SDS011;64985;46.364;17.008;2023-11-22T15:12:55;18.08;;;10.30;;
76202;SDS011;64985;46.364;17.008;2023-11-22T15:16:00;17.98;;;9.93;;
76202;SDS011;64985;46.364;17.008;2023-11-22T15:19:03;18.17;;;10.80;;
76202;SDS011;64985;46.364;17.008;2023-11-22T15:22:09;19.35;;;10.80;;
76202;SDS011;64985;46.364;17.008;2023-11-22T15:25:12;19.40;;;10.68;;
76202;SDS011;64985;46.364;17.008;2023-11-22T15:28:18;21.60;;;11.68;;
76202;SDS011;64985;46.364;17.008;2023-11-22T15:31:25;18.75;;;10.63;;
76202;SDS011;64985;46.364;17.008;2023-11-22T15:34:28;18.60;;;10.68;;
76202;SDS011;64985;46.364;17.008;2023-11-22T15:37:32;18.75;;;10.35;;
76202;SDS011;64985;46.364;17.008;2023-11-22T15:40:35;19.58;;;11.00;;
76202;SDS011;64985;46.364;17.008;2023-11-22T15:43:38;19.77;;;10.80;;
76202;SDS011;64985;46.364;17.008;2023-11-22T15:46:42;19.33;;;10.93;;
76202;SDS011;64985;46.364;17.008;2023-11-22T15:49:45;24.15;;;12.18;;
76202;SDS011;64985;46.364;17.008;2023-11-22T15:52:49;20.27;;;11.18;;
76202;SDS011;64985;46.364;17.008;2023-11-22T15:55:52;22.70;;;11.68;;
76202;SDS011;64985;46.364;17.008;2023-11-22T15:58:56;22.38;;;12.65;;
76202;SDS011;64985;46.364;17.008;2023-11-22T16:02:03;21.50;;;12.23;;
76202;SDS011;64985;46.364;17.008;2023-11-22T16:05:06;20.67;;;11.98;;
76202;SDS011;64985;46.364;17.008;2023-11-22T16:08:15;20.48;;;11.45;;
76202;SDS011;64985;46.364;17.008;2023-11-22T16:11:18;20.55;;;11.70;;
76202;SDS011;64985;46.364;17.008;2023-11-22T16:14:21;24.98;;;12.80;;
76202;SDS011;64985;46.364;17.008;2023-11-22T16:17:25;28.45;;;15.40;;
76202;SDS011;64985;46.364;17.008;2023-11-22T16:20:29;24.60;;;12.98;;
76202;SDS011;64985;46.364;17.008;2023-11-22T16:23:34;23.95;;;13.18;;
76202;SDS011;64985;46.364;17.008;2023-11-22T16:26:38;23.83;;;12.07;;
76202;SDS011;64985;46.364;17.008;2023-11-22T16:29:42;22.58;;;12.75;;
76202;SDS011;64985;46.364;17.008;2023-11-22T16:32:46;25.58;;;12.70;;
76202;SDS011;64985;46.364;17.008;2023-11-22T16:35:50;23.45;;;13.18;;
76202;SDS011;64985;46.364;17.008;2023-11-22T16:38:54;25.17;;;12.68;;
76202;SDS011;64985;46.364;17.008;2023-11-22T16:41:57;25.08;;;13.23;;
76202;SDS011;64985;46.364;17.008;2023-11-22T16:45:01;24.60;;;13.43;;
76202;SDS011;64985;46.364;17.008;2023-11-22T16:48:05;25.17;;;13.10;;
76202;SDS011;64985;46.364;17.008;2023-11-22T16:51:10;26.25;;;13.60;;
76202;SDS011;64985;46.364;17.008;2023-11-22T16:54:13;26.20;;;13.30;;
76202;SDS011;64985;46.364;17.008;2023-11-22T16:57:17;22.92;;;12.50;;
76202;SDS011;64985;46.364;17.008;2023-11-22T17:00:21;27.55;;;14.07;;
76202;SDS011;64985;46.364;17.008;2023-11-22T17:03:24;25.08;;;13.05;;
76202;SDS011;64985;46.364;17.008;2023-11-22T17:06:28;25.48;;;13.85;;
76202;SDS011;64985;46.364;17.008;2023-11-22T17:09:32;25.15;;;13.15;;
76202;SDS011;64985;46.364;17.008;2023-11-22T17:12:36;24.35;;;13.30;;
76202;SDS011;64985;46.364;17.008;2023-11-22T17:15:40;25.88;;;13.45;;
76202;SDS011;64985;46.364;17.008;2023-11-22T17:18:46;25.75;;;12.27;;
76202;SDS011;64985;46.364;17.008;2023-11-22T17:21:50;38.08;;;16.02;;
76202;SDS011;64985;46.364;17.008;2023-11-22T17:24:54;27.75;;;13.70;;
76202;SDS011;64985;46.364;17.008;2023-11-22T17:28:00;29.98;;;14.48;;
76202;SDS011;64985;46.364;17.008;2023-11-22T17:31:03;26.55;;;13.32;;
76202;SDS011;64985;46.364;17.008;2023-11-22T17:34:07;24.20;;;13.10;;
76202;SDS011;64985;46.364;17.008;2023-11-22T17:37:11;23.70;;;12.65;;
76202;SDS011;64985;46.364;17.008;2023-11-22T17:40:14;26.02;;;13.13;;
76202;SDS011;64985;46.364;17.008;2023-11-22T17:43:19;24.10;;;12.57;;
76202;SDS011;64985;46.364;17.008;2023-11-22T17:46:26;26.40;;;13.50;;
76202;SDS011;64985;46.364;17.008;2023-11-22T17:49:32;23.77;;;12.57;;
76202;SDS011;64985;46.364;17.008;2023-11-22T17:52:36;26.48;;;13.90;;
76202;SDS011;64985;46.364;17.008;2023-11-22T17:55:40;23.10;;;12.35;;
76202;SDS011;64985;46.364;17.008;2023-11-22T17:58:45;25.15;;;13.05;;